createdAt,value
2023-02-12T00:01:26.347Z,-2.95
2023-02-12T00:03:55.261Z,-2.94
2023-02-12T00:06:24.249Z,-2.90
2023-02-12T00:08:54.231Z,-2.82
2023-02-12T00:11:25.819Z,-2.77
2023-02-12T00:13:55.292Z,-2.72
2023-02-12T00:16:29.028Z,-2.65
2023-02-12T00:18:59.043Z,-2.64
2023-02-12T00:21:29.021Z,-2.65
2023-02-12T00:23:57.869Z,-2.68
2023-02-12T00:26:26.093Z,-2.67
2023-02-12T00:28:55.093Z,-2.66
2023-02-12T00:31:26.980Z,-2.61
2023-02-12T00:33:59.441Z,-2.62
2023-02-12T00:36:29.544Z,-2.63
2023-02-12T00:38:58.305Z,-2.63
2023-02-12T00:41:27.364Z,-2.63
2023-02-12T00:43:55.973Z,-2.64
2023-02-12T00:46:24.203Z,-2.68
2023-02-12T00:48:52.547Z,-2.74
2023-02-12T00:51:21.973Z,-2.76
2023-02-12T00:53:50.085Z,-2.83
2023-02-12T00:56:18.143Z,-2.87
2023-02-12T00:58:48.958Z,-2.89
2023-02-12T01:01:18.012Z,-2.91
2023-02-12T01:03:46.098Z,-2.94
2023-02-12T01:06:14.222Z,-2.98
2023-02-12T01:08:42.252Z,-3.02
2023-02-12T01:11:13.110Z,-3.05
2023-02-12T01:13:41.410Z,-3.10
2023-02-12T01:16:16.297Z,-3.14
2023-02-12T01:18:45.884Z,-3.16
2023-02-12T01:21:19.485Z,-3.17
2023-02-12T01:23:48.605Z,-3.20
2023-02-12T01:26:18.127Z,-3.22
2023-02-12T01:28:51.208Z,-3.23
2023-02-12T01:31:23.160Z,-3.27
2023-02-12T01:33:54.410Z,-3.30
2023-02-12T01:36:26.332Z,-3.32
2023-02-12T01:38:56.126Z,-3.33
2023-02-12T01:41:29.675Z,-3.35
2023-02-12T01:44:09.944Z,-3.37
2023-02-12T01:46:38.678Z,-3.37
2023-02-12T01:49:12.681Z,-3.38
2023-02-12T01:51:43.510Z,-3.39
2023-02-12T01:54:15.203Z,-3.40
2023-02-12T01:56:43.820Z,-3.43
2023-02-12T01:59:13.110Z,-3.45
2023-02-12T02:01:41.357Z,-3.47
2023-02-12T02:04:14.138Z,-3.49
2023-02-12T02:07:05.543Z,-3.51
2023-02-12T02:09:36.681Z,-3.52
2023-02-12T02:12:24.739Z,-3.52
2023-02-12T02:14:57.104Z,-3.53
2023-02-12T02:17:37.424Z,-3.55
2023-02-12T02:20:20.584Z,-3.58
2023-02-12T02:23:10.078Z,-3.59
2023-02-12T02:26:05.887Z,-3.61
2023-02-12T02:28:44.643Z,-3.62
2023-02-12T02:31:17.912Z,-3.62
2023-02-12T02:33:59.657Z,-3.63
2023-02-12T02:36:32.445Z,-3.64
2023-02-12T02:39:06.624Z,-3.64
2023-02-12T02:41:59.601Z,-3.64
2023-02-12T02:44:37.382Z,-3.62
2023-02-12T02:47:10.214Z,-3.60
2023-02-12T02:49:56.359Z,-3.58
2023-02-12T02:52:37.453Z,-3.57
2023-02-12T02:55:12.460Z,-3.56
2023-02-12T02:58:12.210Z,-3.58
2023-02-12T03:04:46.563Z,-3.57
2023-02-12T03:07:25.149Z,-3.56
2023-02-12T03:09:59.358Z,-3.55
2023-02-12T03:12:44.982Z,-3.54
2023-02-12T03:15:27.106Z,-3.53
2023-02-12T03:17:58.823Z,-3.53
2023-02-12T03:20:33.934Z,-3.54
2023-02-12T03:23:14.532Z,-3.54
2023-02-12T03:25:47.300Z,-3.53
2023-02-12T03:28:20.820Z,-3.52
2023-02-12T03:30:59.958Z,-3.52
2023-02-12T03:33:34.034Z,-3.52
2023-02-12T03:36:10.989Z,-3.53
2023-02-12T03:38:46.255Z,-3.51
2023-02-12T03:41:31.508Z,-3.52
2023-02-12T03:44:21.318Z,-3.53
2023-02-12T03:47:09.472Z,-3.55
2023-02-12T03:50:00.858Z,-3.55
2023-02-12T03:52:30.491Z,-3.52
2023-02-12T03:54:59.074Z,-3.49
2023-02-12T03:57:34.235Z,-3.45
2023-02-12T04:00:08.929Z,-3.42
2023-02-12T04:02:43.495Z,-3.39
2023-02-12T04:05:24.141Z,-3.37
2023-02-12T04:07:54.146Z,-3.35
2023-02-12T04:10:45.699Z,-3.33
2023-02-12T04:13:26.448Z,-3.31
2023-02-12T04:16:12.505Z,-3.32
2023-02-12T04:18:52.115Z,-3.32
2023-02-12T04:21:48.033Z,-3.31
2023-02-12T04:24:24.562Z,-3.31
2023-02-12T04:27:03.051Z,-3.31
2023-02-12T04:29:56.206Z,-3.30
2023-02-12T04:32:38.300Z,-3.30
2023-02-12T04:35:27.995Z,-3.30
2023-02-12T04:38:18.647Z,-3.29
2023-02-12T04:40:48.188Z,-3.29
2023-02-12T04:43:30.136Z,-3.27
2023-02-12T04:45:58.420Z,-3.26
2023-02-12T04:48:26.752Z,-3.25
2023-02-12T04:50:54.708Z,-3.22
2023-02-12T04:53:22.791Z,-3.18
2023-02-12T04:55:50.761Z,-3.14
2023-02-12T04:58:18.858Z,-3.09
2023-02-12T05:00:46.894Z,-2.99
2023-02-12T05:03:14.824Z,-2.89
2023-02-12T05:05:42.839Z,-2.80
2023-02-12T05:08:10.877Z,-2.74
2023-02-12T05:10:38.921Z,-2.69
2023-02-12T05:13:08.020Z,-2.67
2023-02-12T05:15:38.474Z,-2.66
2023-02-12T05:18:06.578Z,-2.64
2023-02-12T05:20:34.438Z,-2.62
2023-02-12T05:23:02.472Z,-2.59
2023-02-12T05:25:32.707Z,-2.59
2023-02-12T05:28:00.706Z,-2.60
2023-02-12T05:30:28.688Z,-2.60
2023-02-12T05:33:02.621Z,-2.58
2023-02-12T05:35:30.526Z,-2.58
2023-02-12T05:37:58.496Z,-2.56
2023-02-12T05:40:26.637Z,-2.49
2023-02-12T05:42:54.645Z,-2.42
2023-02-12T05:45:27.874Z,-2.37
2023-02-12T05:47:56.559Z,-2.39
2023-02-12T05:50:24.882Z,-2.44
2023-02-12T05:53:01.447Z,-2.47
2023-02-12T05:55:29.411Z,-2.47
2023-02-12T05:57:57.336Z,-2.44
2023-02-12T06:00:25.488Z,-2.39
2023-02-12T06:02:53.654Z,-2.33
2023-02-12T06:05:21.678Z,-2.29
2023-02-12T06:07:49.693Z,-2.31
2023-02-12T06:10:17.853Z,-2.34
2023-02-12T06:12:46.293Z,-2.37
2023-02-12T06:15:14.267Z,-2.40
2023-02-12T06:17:42.167Z,-2.41
2023-02-12T06:20:10.310Z,-2.44
2023-02-12T06:22:38.486Z,-2.47
2023-02-12T06:25:06.963Z,-2.48
2023-02-12T06:27:34.935Z,-2.50
2023-02-12T06:30:03.211Z,-2.51
2023-02-12T06:32:31.259Z,-2.51
2023-02-12T06:34:59.282Z,-2.52
2023-02-12T06:37:27.340Z,-2.51
2023-02-12T06:39:55.659Z,-2.51
2023-02-12T06:42:23.532Z,-2.52
2023-02-12T06:44:53.041Z,-2.54
2023-02-12T06:47:21.686Z,-2.55
2023-02-12T06:49:49.711Z,-2.56
2023-02-12T06:52:17.703Z,-2.53
2023-02-12T06:54:45.563Z,-2.49
2023-02-12T06:57:13.623Z,-2.46
2023-02-12T06:59:41.566Z,-2.43
2023-02-12T07:02:11.458Z,-2.38
2023-02-12T07:04:39.502Z,-2.33
2023-02-12T07:07:07.644Z,-2.28
2023-02-12T07:09:35.815Z,-2.24
2023-02-12T07:12:04.541Z,-2.18
2023-02-12T07:14:34.205Z,-2.12
2023-02-12T07:17:04.021Z,-2.06
2023-02-12T07:19:32.473Z,-1.98
2023-02-12T07:22:00.833Z,-1.90
2023-02-12T07:24:28.843Z,-1.82
2023-02-12T07:26:56.880Z,-1.75
2023-02-12T07:29:25.166Z,-1.68
2023-02-12T07:31:53.415Z,-1.63
2023-02-12T07:34:21.404Z,-1.61
2023-02-12T07:36:49.475Z,-1.59
2023-02-12T07:39:17.461Z,-1.56
2023-02-12T07:41:45.511Z,-1.51
2023-02-12T07:44:13.791Z,-1.45
2023-02-12T07:46:49.427Z,-1.38
2023-02-12T07:49:20.304Z,-1.33
2023-02-12T07:51:51.136Z,-1.29
2023-02-12T07:54:19.153Z,-1.28
2023-02-12T07:56:47.463Z,-1.27
2023-02-12T07:59:18.399Z,-1.25
2023-02-12T08:01:51.683Z,-1.24
2023-02-12T08:04:23.051Z,-1.21
2023-02-12T08:06:54.116Z,-1.18
2023-02-12T08:09:24.783Z,-1.13
2023-02-12T08:11:53.383Z,-1.09
2023-02-12T08:14:22.270Z,-1.05
2023-02-12T08:16:51.034Z,-0.98
2023-02-12T08:19:24.756Z,-0.90
2023-02-12T08:21:54.813Z,-0.81
2023-02-12T08:24:23.551Z,-0.74
2023-02-12T08:26:52.008Z,-0.66
2023-02-12T08:29:22.843Z,-0.57
2023-02-12T08:31:56.378Z,-0.48
2023-02-12T08:34:31.782Z,-0.38
2023-02-12T08:37:00.387Z,-0.26
2023-02-12T08:39:30.303Z,-0.15
2023-02-12T08:41:59.976Z,-0.06
2023-02-12T08:44:28.538Z,0.04
2023-02-12T08:46:56.713Z,0.13
2023-02-12T08:49:29.481Z,0.24
2023-02-12T08:51:59.878Z,0.36
2023-02-12T08:54:29.791Z,0.49
2023-02-12T08:57:00.849Z,0.62
2023-02-12T08:59:29.697Z,0.75
2023-02-12T09:01:57.623Z,0.86
2023-02-12T09:04:28.267Z,0.94
2023-02-12T09:06:56.868Z,0.97
2023-02-12T09:09:24.841Z,0.99
2023-02-12T09:11:53.012Z,0.99
2023-02-12T09:14:24.270Z,1.00
2023-02-12T09:16:57.283Z,1.02
2023-02-12T09:19:25.633Z,1.03
2023-02-12T09:21:56.652Z,1.14
2023-02-12T09:24:27.965Z,1.29
2023-02-12T09:26:56.708Z,1.39
2023-02-12T09:29:24.720Z,1.51
2023-02-12T09:31:52.993Z,1.60
2023-02-12T09:34:21.358Z,1.68
2023-02-12T09:36:49.653Z,1.70
2023-02-12T09:39:17.677Z,1.78
2023-02-12T09:41:45.670Z,1.87
2023-02-12T09:44:35.025Z,1.89
2023-02-12T09:47:17.420Z,1.99
2023-02-12T09:50:14.927Z,2.17
2023-02-12T09:52:43.231Z,2.19
2023-02-12T09:55:19.586Z,2.19
2023-02-12T09:57:47.816Z,2.17
2023-02-12T10:00:28.065Z,2.23
2023-02-12T10:02:56.261Z,2.33
2023-02-12T10:05:29.352Z,2.52
2023-02-12T10:08:22.156Z,2.73
2023-02-12T10:10:52.190Z,2.87
2023-02-12T10:13:38.693Z,2.83
2023-02-12T10:16:26.948Z,2.90
2023-02-12T10:19:06.843Z,2.97
2023-02-12T10:21:59.661Z,2.95
2023-02-12T10:24:57.820Z,2.85
2023-02-12T10:27:43.596Z,2.81
2023-02-12T10:30:31.380Z,2.83
2023-02-12T10:33:06.964Z,2.85
2023-02-12T10:35:35.647Z,2.88
2023-02-12T10:38:29.591Z,2.98
2023-02-12T10:41:01.779Z,3.19
2023-02-12T10:43:30.664Z,3.35
2023-02-12T10:45:58.899Z,3.49
2023-02-12T10:48:38.886Z,3.59
2023-02-12T10:51:09.657Z,3.76
2023-02-12T10:53:43.537Z,3.83
2023-02-12T10:56:26.071Z,3.79
2023-02-12T10:58:59.301Z,3.77
2023-02-12T11:01:38.452Z,3.76
2023-02-12T11:04:27.936Z,3.65
2023-02-12T11:07:07.516Z,3.64
2023-02-12T11:09:46.293Z,3.76
2023-02-12T11:12:40.982Z,3.94
2023-02-12T11:15:26.532Z,4.08
2023-02-12T11:18:05.127Z,4.03
2023-02-12T11:20:42.286Z,4.06
2023-02-12T11:23:32.652Z,4.14
2023-02-12T11:26:07.337Z,4.17
2023-02-12T11:28:37.125Z,4.19
2023-02-12T11:31:33.310Z,4.31
2023-02-12T11:34:04.527Z,4.54
2023-02-12T11:36:46.120Z,4.70
2023-02-12T11:39:39.073Z,4.74
2023-02-12T11:42:30.944Z,4.70
2023-02-12T11:45:00.262Z,4.75
2023-02-12T11:47:35.372Z,4.83
2023-02-12T11:50:09.233Z,4.86
2023-02-12T11:52:40.848Z,4.79
2023-02-12T11:55:22.558Z,4.66
2023-02-12T11:58:03.189Z,4.52
2023-02-12T12:00:45.620Z,4.36
2023-02-12T12:03:21.370Z,4.27
2023-02-12T12:05:52.820Z,4.22
2023-02-12T12:08:27.897Z,4.30
2023-02-12T12:11:18.962Z,4.35
2023-02-12T12:13:57.659Z,4.41
2023-02-12T12:16:57.028Z,4.41
2023-02-12T12:19:51.654Z,4.37
2023-02-12T12:22:41.608Z,4.47
2023-02-12T12:25:41.482Z,4.45
2023-02-12T12:28:18.880Z,4.60
2023-02-12T12:31:08.865Z,4.75
2023-02-12T12:33:51.679Z,4.66
2023-02-12T12:36:51.875Z,4.55
2023-02-12T12:39:45.796Z,4.65
2023-02-12T12:42:31.951Z,4.71
2023-02-12T12:45:17.429Z,4.55
2023-02-12T12:48:22.654Z,4.41
2023-02-12T12:51:06.007Z,4.41
2023-02-12T12:53:52.758Z,4.55
2023-02-12T12:56:27.057Z,4.43
2023-02-12T12:59:13.806Z,4.34
2023-02-12T13:01:57.481Z,4.32
2023-02-12T13:04:41.819Z,4.20
2023-02-12T13:07:29.013Z,4.15
2023-02-12T13:10:08.354Z,4.11
2023-02-12T13:12:49.538Z,4.08
2023-02-12T13:15:28.447Z,4.17
2023-02-12T13:18:06.888Z,4.11
2023-02-12T13:21:03.401Z,3.87
2023-02-12T13:23:54.641Z,3.70
2023-02-12T13:26:40.826Z,3.77
2023-02-12T13:29:34.901Z,3.75
2023-02-12T13:32:22.501Z,3.67
2023-02-12T13:34:53.139Z,3.59
2023-02-12T13:37:35.443Z,3.64
2023-02-12T13:40:14.179Z,3.81
2023-02-12T13:42:43.179Z,4.01
2023-02-12T13:45:20.413Z,4.04
2023-02-12T13:48:06.415Z,4.10
2023-02-12T13:51:01.420Z,4.27
2023-02-12T13:53:48.208Z,4.48
2023-02-12T13:56:42.357Z,4.46
2023-02-12T13:59:51.068Z,4.28
2023-02-12T14:02:38.971Z,4.28
2023-02-12T14:05:36.923Z,4.35
2023-02-12T14:08:06.598Z,4.37
2023-02-12T14:10:41.257Z,4.44
2023-02-12T14:13:34.210Z,4.66
2023-02-12T14:16:39.556Z,4.84
2023-02-12T14:19:41.694Z,4.83
2023-02-12T14:22:29.822Z,4.82
2023-02-12T14:24:59.295Z,4.78
2023-02-12T14:27:33.297Z,4.80
2023-02-12T14:30:04.344Z,4.73
2023-02-12T14:32:44.909Z,4.67
2023-02-12T14:35:32.137Z,4.62
2023-02-12T14:38:01.142Z,4.48
2023-02-12T14:40:47.020Z,4.37
2023-02-12T14:43:57.146Z,4.34
2023-02-12T14:46:25.211Z,4.25
2023-02-12T14:49:05.980Z,4.15
2023-02-12T14:51:53.503Z,4.06
2023-02-12T14:54:30.545Z,3.86
2023-02-12T14:57:02.959Z,3.73
2023-02-12T14:59:39.507Z,3.61
2023-02-12T15:02:09.430Z,3.51
2023-02-12T15:04:41.372Z,3.40
2023-02-12T15:07:17.215Z,3.31
2023-02-12T15:09:52.374Z,3.22
2023-02-12T15:12:38.346Z,3.12
2023-02-12T15:15:34.790Z,2.99
2023-02-12T15:18:20.634Z,2.88
2023-02-12T15:20:55.237Z,2.80
2023-02-12T15:24:08.023Z,2.73
2023-02-12T15:26:47.386Z,2.63
2023-02-12T15:29:55.849Z,2.53
2023-02-12T15:32:27.113Z,2.42
2023-02-12T15:34:56.186Z,2.32
2023-02-12T15:37:30.784Z,2.24
2023-02-12T15:40:01.639Z,2.14
2023-02-12T15:42:33.831Z,2.03
2023-02-12T15:45:25.937Z,1.93
2023-02-12T15:48:00.969Z,1.84
2023-02-12T15:50:31.277Z,1.76
2023-02-12T15:52:59.669Z,1.65
2023-02-12T15:55:33.304Z,1.52
2023-02-12T15:58:03.382Z,1.40
2023-02-12T16:00:43.318Z,1.30
2023-02-12T16:03:28.969Z,1.21
2023-02-12T16:06:03.972Z,1.13
2023-02-12T16:08:34.139Z,1.06
2023-02-12T16:11:13.718Z,0.98
2023-02-12T16:13:51.826Z,0.91
2023-02-12T16:16:39.935Z,0.85
2023-02-12T16:19:22.531Z,0.81
2023-02-12T16:21:56.565Z,0.75
2023-02-12T16:24:33.561Z,0.70
2023-02-12T16:27:09.588Z,0.67
2023-02-12T16:29:45.945Z,0.64
2023-02-12T16:32:36.256Z,0.60
2023-02-12T16:35:33.866Z,0.56
2023-02-12T16:38:03.899Z,0.53
2023-02-12T16:40:35.282Z,0.49
2023-02-12T16:43:23.154Z,0.46
2023-02-12T16:45:59.804Z,0.42
2023-02-12T16:48:28.169Z,0.38
2023-02-12T16:50:59.714Z,0.33
2023-02-12T16:53:30.700Z,0.27
2023-02-12T16:56:00.599Z,0.22
2023-02-12T16:58:28.732Z,0.17
2023-02-12T17:00:58.927Z,0.13
2023-02-12T17:03:27.112Z,0.08
2023-02-12T17:05:57.123Z,0.03
2023-02-12T17:08:25.636Z,-0.03
2023-02-12T17:10:53.724Z,-0.09
2023-02-12T17:13:21.848Z,-0.13
2023-02-12T17:15:59.743Z,-0.17
2023-02-12T17:18:28.695Z,-0.20
2023-02-12T17:21:17.161Z,-0.23
2023-02-12T17:23:45.228Z,-0.29
2023-02-12T17:26:13.345Z,-0.33
2023-02-12T17:28:41.555Z,-0.37
2023-02-12T17:31:10.132Z,-0.39
2023-02-12T17:33:39.513Z,-0.41
2023-02-12T17:36:08.353Z,-0.43
2023-02-12T17:38:36.779Z,-0.45
2023-02-12T17:41:11.670Z,-0.48
2023-02-12T17:43:39.748Z,-0.50
2023-02-12T17:46:13.283Z,-0.52
2023-02-12T17:48:41.353Z,-0.53
2023-02-12T17:51:14.605Z,-0.53
2023-02-12T17:53:43.036Z,-0.53
2023-02-12T17:56:17.776Z,-0.53
2023-02-12T17:58:46.915Z,-0.55
2023-02-12T18:01:18.731Z,-0.56
2023-02-12T18:03:47.650Z,-0.56
2023-02-12T18:06:26.536Z,-0.57
2023-02-12T18:08:56.622Z,-0.58
2023-02-12T18:11:25.381Z,-0.58
2023-02-12T18:13:55.856Z,-0.59
2023-02-12T18:16:26.336Z,-0.61
2023-02-12T18:18:55.087Z,-0.61
2023-02-12T18:21:23.813Z,-0.62
2023-02-12T18:23:54.075Z,-0.63
2023-02-12T18:26:22.962Z,-0.64
2023-02-12T18:28:51.258Z,-0.65
2023-02-12T18:31:20.613Z,-0.67
2023-02-12T18:33:49.074Z,-0.70
2023-02-12T18:36:19.748Z,-0.74
2023-02-12T18:38:49.481Z,-0.77
2023-02-12T18:41:19.208Z,-0.79
2023-02-12T18:43:47.970Z,-0.79
2023-02-12T18:46:19.815Z,-0.82
2023-02-12T18:48:49.149Z,-0.83
2023-02-12T18:51:22.283Z,-0.82
2023-02-12T18:54:01.945Z,-0.82
2023-02-12T18:56:40.987Z,-0.86
2023-02-12T18:59:11.754Z,-0.90
2023-02-12T19:01:40.152Z,-0.92
2023-02-12T19:04:10.936Z,-0.96
2023-02-12T19:06:42.470Z,-0.99
2023-02-12T19:09:12.439Z,-0.99
2023-02-12T19:11:40.430Z,-1.01
2023-02-12T19:14:08.342Z,-1.05
2023-02-12T19:16:36.576Z,-1.11
2023-02-12T19:19:04.738Z,-1.17
2023-02-12T19:21:32.845Z,-1.21
2023-02-12T19:24:03.236Z,-1.25
2023-02-12T19:26:33.156Z,-1.29
2023-02-12T19:29:02.811Z,-1.33
2023-02-12T19:31:34.866Z,-1.37
2023-02-12T19:34:06.878Z,-1.40
2023-02-12T19:36:36.739Z,-1.44
2023-02-12T19:39:06.152Z,-1.47
2023-02-12T19:41:41.170Z,-1.52
2023-02-12T19:44:12.664Z,-1.56
2023-02-12T19:46:41.654Z,-1.61
2023-02-12T19:49:15.810Z,-1.66
2023-02-12T19:51:44.829Z,-1.72
2023-02-12T19:54:14.927Z,-1.76
2023-02-12T19:56:43.934Z,-1.81
2023-02-12T19:59:17.499Z,-1.85
2023-02-12T20:01:46.648Z,-1.90
2023-02-12T20:04:19.410Z,-1.95
2023-02-12T20:06:51.462Z,-2.00
2023-02-12T20:09:21.661Z,-2.04
2023-02-12T20:11:49.764Z,-2.09
2023-02-12T20:14:18.155Z,-2.14
2023-02-12T20:16:48.034Z,-2.19
2023-02-12T20:19:23.364Z,-2.23
2023-02-12T20:21:55.509Z,-2.27
2023-02-12T20:24:30.114Z,-2.31
2023-02-12T20:27:00.243Z,-2.35
2023-02-12T20:29:29.010Z,-2.39
2023-02-12T20:31:57.558Z,-2.44
2023-02-12T20:34:26.528Z,-2.49
2023-02-12T20:36:54.458Z,-2.54
2023-02-12T20:39:23.033Z,-2.58
2023-02-12T20:41:51.506Z,-2.63
2023-02-12T20:44:22.116Z,-2.67
2023-02-12T20:46:55.985Z,-2.69
2023-02-12T20:49:26.146Z,-2.71
2023-02-12T20:51:54.495Z,-2.73
2023-02-12T20:54:22.945Z,-2.74
2023-02-12T20:56:51.225Z,-2.77
2023-02-12T20:59:20.353Z,-2.79
2023-02-12T21:01:48.783Z,-2.81
2023-02-12T21:04:18.577Z,-2.82
2023-02-12T21:06:48.707Z,-2.84
2023-02-12T21:09:17.478Z,-2.86
2023-02-12T21:11:46.054Z,-2.87
2023-02-12T21:14:23.878Z,-2.86
2023-02-12T21:16:55.220Z,-2.81
2023-02-12T21:19:23.859Z,-2.78
2023-02-12T21:21:52.608Z,-2.77
2023-02-12T21:24:26.046Z,-2.78
2023-02-12T21:26:55.467Z,-2.78
2023-02-12T21:29:23.595Z,-2.80
2023-02-12T21:31:51.923Z,-2.83
2023-02-12T21:34:22.584Z,-2.85
2023-02-12T21:36:53.139Z,-2.88
2023-02-12T21:39:27.563Z,-2.88
2023-02-12T21:42:02.600Z,-2.89
2023-02-12T21:44:35.474Z,-2.89
2023-02-12T21:47:04.348Z,-2.88
2023-02-12T21:49:32.594Z,-2.84
2023-02-12T21:52:03.680Z,-2.79
2023-02-12T21:54:33.145Z,-2.74
2023-02-12T21:57:01.863Z,-2.72
2023-02-12T21:59:40.000Z,-2.70
2023-02-12T22:02:09.539Z,-2.69
2023-02-12T22:04:37.551Z,-2.67
2023-02-12T22:07:06.460Z,-2.66
2023-02-12T22:09:35.718Z,-2.66
2023-02-12T22:12:04.012Z,-2.66
2023-02-12T22:14:32.073Z,-2.66
2023-02-12T22:17:01.582Z,-2.67
2023-02-12T22:19:29.553Z,-2.68
2023-02-12T22:21:57.526Z,-2.70
2023-02-12T22:24:25.450Z,-2.72
2023-02-12T22:26:55.183Z,-2.72
2023-02-12T22:29:23.923Z,-2.73
2023-02-12T22:31:52.526Z,-2.76
2023-02-12T22:34:20.686Z,-2.80
2023-02-12T22:36:48.895Z,-2.81
2023-02-12T22:39:17.765Z,-2.85
2023-02-12T22:41:46.035Z,-2.92
2023-02-12T22:44:15.331Z,-2.99
2023-02-12T22:46:44.726Z,-3.07
2023-02-12T22:49:13.070Z,-3.13
2023-02-12T22:51:41.322Z,-3.17
2023-02-12T22:54:14.949Z,-3.20
2023-02-12T22:56:45.902Z,-3.23
2023-02-12T22:59:14.493Z,-3.25
2023-02-12T23:01:43.425Z,-3.26
2023-02-12T23:04:16.955Z,-3.29
2023-02-12T23:06:46.249Z,-3.32
2023-02-12T23:09:16.764Z,-3.35
2023-02-12T23:11:44.875Z,-3.38
2023-02-12T23:14:13.868Z,-3.41
2023-02-12T23:16:41.904Z,-3.46
2023-02-12T23:19:11.110Z,-3.49
2023-02-12T23:21:39.659Z,-3.51
2023-02-12T23:24:07.910Z,-3.53
2023-02-12T23:26:36.761Z,-3.55
2023-02-12T23:29:04.659Z,-3.57
2023-02-12T23:31:32.616Z,-3.61
2023-02-12T23:34:00.665Z,-3.66
2023-02-12T23:36:29.463Z,-3.74
2023-02-12T23:38:59.473Z,-3.81
2023-02-12T23:41:27.364Z,-3.87
2023-02-12T23:43:55.348Z,-3.92
2023-02-12T23:46:23.279Z,-3.97
2023-02-12T23:48:51.239Z,-4.00
2023-02-12T23:51:19.178Z,-4.05
2023-02-12T23:53:47.042Z,-4.08
2023-02-12T23:56:15.372Z,-4.11
2023-02-12T23:58:43.239Z,-4.12
